Time;durP1;ratioP1;P1;durP2;ratioP2;P2;SDS_P1;SDS_P2;PMS_P1;PMS_P2;Temp;Humidity;BMP_temperature;BMP_pressure;BME280_temperature;BME280_humidity;BME280_pressure;Samples;Min_cycle;Max_cycle;Signal;HPM_P1;HPM_P2
2022/10/05 00:02:07;;;;;;;18.52;10.58;;;;;;;9.55;72.99;101376.07;1690702;83;21118;-74
2022/10/05 00:04:55;;;;;;;15.00;10.03;;;;;;;9.58;73.04;101376.08;1690556;83;21054;-74
2022/10/05 00:07:40;;;;;;;20.82;10.78;;;;;;;9.59;73.07;101364.45;1698993;83;21053;-74
2022/10/05 00:10:26;;;;;;;15.90;10.43;;;;;;;9.63;73.11;101357.57;1702444;83;21062;-74
2022/10/05 00:13:23;;;;;;;14.68;9.30;;;;;;;9.67;73.13;101337.77;1701752;83;21096;-74
2022/10/05 00:16:20;;;;;;;22.00;9.35;;;;;;;9.69;73.16;101331.74;1695170;83;21509;-74
2022/10/05 00:19:17;;;;;;;15.78;10.18;;;;;;;9.73;73.22;101327.44;1697526;83;21048;-74
2022/10/05 00:22:18;;;;;;;15.72;9.50;;;;;;;9.75;73.23;101323.99;1693188;83;21000;-74
2022/10/05 00:25:14;;;;;;;18.82;9.80;;;;;;;9.75;73.30;101329.16;1656978;85;21017;-74
2022/10/05 00:28:00;;;;;;;17.77;9.03;;;;;;;9.76;73.35;101332.17;1622599;86;21061;-74
2022/10/05 00:30:45;;;;;;;18.10;9.83;;;;;;;9.79;73.41;101342.92;1640042;86;21013;-74
2022/10/05 00:33:30;;;;;;;14.63;9.88;;;;;;;9.81;73.44;101342.50;1649411;85;21081;-78
2022/10/05 00:36:17;;;;;;;16.67;10.00;;;;;;;9.83;73.49;101346.80;1620472;87;21110;-74
2022/10/05 00:39:02;;;;;;;16.10;9.48;;;;;;;9.86;73.55;101337.75;1622567;86;21087;-74
2022/10/05 00:42:17;;;;;;;12.90;8.95;;;;;;;9.90;73.61;101337.28;1683758;84;21045;-74
2022/10/05 00:45:26;;;;;;;15.78;10.18;;;;;;;9.92;73.61;101326.52;1726409;82;21105;-74
2022/10/05 00:48:38;;;;;;;13.68;8.90;;;;;;;9.95;73.64;101314.45;1719475;82;21071;-74
2022/10/05 00:51:35;;;;;;;17.00;9.28;;;;;;;9.98;73.67;101309.72;1618684;83;21228;-74
2022/10/05 00:54:35;;;;;;;16.62;9.38;;;;;;;10.02;73.73;101314.44;1712682;82;21890;-74
2022/10/05 00:58:12;;;;;;;11.70;8.68;;;;;;;10.03;73.75;101314.87;1725039;83;20950;-74
2022/10/05 01:01:13;;;;;;;14.23;9.48;;;;;;;10.05;73.79;101308.84;1704330;82;21469;-74
2022/10/05 01:04:28;;;;;;;15.03;8.53;;;;;;;10.06;73.81;101309.70;1698945;82;21030;-74
2022/10/05 01:07:42;;;;;;;15.35;8.68;;;;;;;10.08;73.87;101317.02;1706348;81;21069;-73
2022/10/05 01:10:35;;;;;;;16.02;9.15;;;;;;;10.07;73.91;101324.33;1715334;82;21345;-74
2022/10/05 01:13:41;;;;;;;15.60;8.70;;;;;;;10.06;73.95;101318.30;1701754;82;21529;-74
2022/10/05 01:16:46;;;;;;;14.78;9.05;;;;;;;9.96;74.01;101298.52;1719401;82;21081;-74
2022/10/05 01:19:39;;;;;;;15.05;8.23;;;;;;;9.96;74.01;101298.52;1719774;82;21051;-74
2022/10/05 01:22:57;;;;;;;13.20;8.45;;;;;;;10.08;74.07;101304.09;1711169;82;21368;-74
2022/10/05 01:26:04;;;;;;;11.28;7.75;;;;;;;10.07;74.07;101300.65;1699981;82;21119;-75
2022/10/05 01:28:56;;;;;;;16.82;9.53;;;;;;;10.08;74.12;101303.66;1703667;82;21077;-74
2022/10/05 01:31:55;;;;;;;14.85;7.97;;;;;;;10.09;74.18;101303.23;1714757;82;21060;-74
2022/10/05 01:35:01;;;;;;;11.33;7.92;;;;;;;10.09;74.20;101303.23;1709402;82;21056;-74
2022/10/05 01:38:09;;;;;;;9.30;7.70;;;;;;;10.11;74.24;101301.50;1710740;82;21001;-74
2022/10/05 01:40:59;;;;;;;15.08;8.13;;;;;;;10.12;74.28;101291.59;1693634;82;21041;-74
2022/10/05 01:43:58;;;;;;;14.43;9.40;;;;;;;10.11;74.30;101276.52;1651691;85;21462;-74
2022/10/05 01:46:58;;;;;;;15.08;8.75;;;;;;;10.12;74.35;101278.23;1644840;86;21412;-74
2022/10/05 01:50:03;;;;;;;14.30;8.28;;;;;;;10.10;74.33;101276.52;1663645;84;21117;-74
2022/10/05 01:53:15;;;;;;;11.57;8.80;;;;;;;10.10;74.40;101275.23;1656877;85;21097;-74
2022/10/05 01:56:23;;;;;;;10.80;8.88;;;;;;;10.08;74.44;101283.42;1665068;84;21086;-74
2022/10/05 01:59:31;;;;;;;14.40;7.45;;;;;;;10.07;74.48;101276.10;1652469;84;21068;-74
2022/10/05 02:02:19;;;;;;;14.80;8.28;;;;;;;10.06;74.53;101266.63;1696244;83;21018;-74
2022/10/05 02:05:31;;;;;;;13.55;8.25;;;;;;;10.05;74.56;101266.63;1693240;83;21086;-74
2022/10/05 02:08:41;;;;;;;12.23;8.35;;;;;;;10.04;74.61;101273.52;1699364;82;21049;-74
2022/10/05 02:11:26;;;;;;;14.83;8.33;;;;;;;10.04;74.64;101277.41;1707943;83;21004;-74
2022/10/05 02:14:15;;;;;;;12.00;7.85;;;;;;;10.05;74.71;101276.97;1694072;83;21053;-74
2022/10/05 02:17:05;;;;;;;12.88;8.18;;;;;;;10.06;74.71;101279.98;1696435;83;21021;-75
2022/10/05 02:19:55;;;;;;;12.20;7.58;;;;;;;10.06;74.73;101281.27;1688791;83;21037;-75
2022/10/05 02:22:48;;;;;;;12.60;7.83;;;;;;;10.07;74.80;101287.73;1699060;83;21058;-74
2022/10/05 02:25:37;;;;;;;12.25;7.87;;;;;;;10.09;74.84;101290.31;1706579;82;21094;-74
2022/10/05 02:28:43;;;;;;;15.98;8.13;;;;;;;10.11;74.85;101282.98;1703722;83;21046;-74
2022/10/05 02:31:39;;;;;;;13.05;8.75;;;;;;;10.13;74.90;101282.97;1687192;83;21066;-74
2022/10/05 02:34:40;;;;;;;17.30;9.33;;;;;;;10.14;74.90;101275.65;1704114;83;21019;-74
2022/10/05 02:37:56;;;;;;;13.30;9.60;;;;;;;10.15;74.95;101265.73;1701579;82;21418;-74
2022/10/05 02:41:22;;;;;;;17.00;10.45;;;;;;;10.15;74.99;101268.33;1691919;83;21102;-74
2022/10/05 02:44:38;;;;;;;24.70;11.63;;;;;;;10.14;75.00;101258.42;1687479;83;23152;-74
2022/10/05 02:47:34;;;;;;;13.68;9.28;;;;;;;10.13;75.07;101259.28;1704092;82;21120;-74
2022/10/05 02:50:48;;;;;;;15.55;9.88;;;;;;;10.12;75.08;101261.44;1705348;82;21686;-74
2022/10/05 02:56:26;;;;;;;14.30;8.73;;;;;;;10.15;75.35;101268.33;1865732;76;23457;-74
2022/10/05 02:59:37;;;;;;;11.73;8.18;;;;;;;10.09;75.16;101257.58;1709668;78;606375;-74
2022/10/05 03:02:48;;;;;;;10.40;7.50;;;;;;;10.08;75.18;101268.77;1605628;83;5000753;-74
2022/10/05 03:05:38;;;;;;;15.45;7.33;;;;;;;10.06;75.21;101271.80;1662663;84;21376;-74
2022/10/05 03:08:34;;;;;;;13.45;8.63;;;;;;;10.05;75.22;101271.37;1674129;84;21034;-74
2022/10/05 03:11:59;;;;;;;10.88;7.37;;;;;;;10.01;75.26;101270.09;1669932;84;21016;-74
2022/10/05 03:14:49;;;;;;;13.15;8.10;;;;;;;10.00;75.28;101280.00;1567274;90;24841;-74
2022/10/05 03:18:04;;;;;;;11.73;7.25;;;;;;;9.98;75.28;101268.81;1666757;83;21466;-74
2022/10/05 03:21:00;;;;;;;11.85;7.47;;;;;;;9.92;75.28;101265.38;1633664;85;21060;-74
2022/10/05 03:24:17;;;;;;;10.53;7.97;;;;;;;9.86;75.33;101265.42;1663886;85;20994;-74
2022/10/05 03:27:34;;;;;;;12.45;7.78;;;;;;;9.84;75.35;101271.03;1661128;86;21135;-74
2022/10/05 03:30:22;;;;;;;14.47;8.33;;;;;;;9.81;75.40;101263.29;1658570;86;21076;-74
2022/10/05 03:33:17;;;;;;;14.33;8.30;;;;;;;9.82;75.40;101257.26;1664422;85;21060;-74
2022/10/05 03:36:13;;;;;;;10.10;7.47;;;;;;;9.82;75.39;101252.09;1659437;86;21595;-74
2022/10/05 03:39:18;;;;;;;13.40;7.95;;;;;;;9.80;75.45;101253.81;1665329;84;21679;-73
2022/10/05 03:42:21;;;;;;;10.05;7.03;;;;;;;9.80;75.46;101258.13;1662041;84;22205;-74
2022/10/05 03:45:36;;;;;;;12.82;7.80;;;;;;;9.78;75.47;101251.67;1659869;85;21056;-74
2022/10/05 03:48:31;;;;;;;11.38;7.37;;;;;;;9.79;75.51;101253.82;1662966;85;21056;-75
2022/10/05 03:51:28;;;;;;;9.70;7.45;;;;;;;9.77;75.53;101251.24;1666577;83;21008;-74
2022/10/05 03:54:24;;;;;;;;;;;;;;;9.77;75.52;101245.22;1650759;85;21076;-74
2022/10/05 03:57:20;;;;;;;10.43;6.78;;;;;;;9.75;75.75;101246.95;1657125;84;20213;-74
2022/10/05 04:00:13;;;;;;;14.00;6.67;;;;;;;9.73;75.59;101238.34;1666094;83;21171;-74
2022/10/05 04:03:38;;;;;;;11.30;7.30;;;;;;;9.73;75.61;101241.78;1653885;85;21131;-74
2022/10/05 04:06:37;;;;;;;9.75;6.58;;;;;;;9.71;75.61;101243.94;1666745;84;21111;-74
2022/10/05 04:09:41;;;;;;;11.00;6.47;;;;;;;9.69;75.62;101250.83;1666858;84;21136;-74
2022/10/05 04:12:43;;;;;;;10.53;6.62;;;;;;;9.68;75.63;101252.98;1667141;84;21635;-75
2022/10/05 04:15:39;;;;;;;8.25;6.75;;;;;;;9.65;75.67;101247.39;1663959;86;21057;-74
2022/10/05 04:18:39;;;;;;;10.53;5.78;;;;;;;9.60;75.67;101247.84;1671737;83;21062;-74
2022/10/05 04:21:42;;;;;;;9.33;6.15;;;;;;;9.57;75.73;101235.79;1658619;84;21080;-75
2022/10/05 04:24:38;;;;;;;7.47;6.30;;;;;;;9.54;75.71;101241.39;1664957;84;21387;-76
2022/10/05 04:27:33;;;;;;;8.23;5.90;;;;;;;9.49;75.74;101237.95;1661990;86;21147;-76
2022/10/05 04:30:23;;;;;;;7.00;6.10;;;;;;;9.45;75.76;101239.68;1656400;84;21682;-76
2022/10/05 04:33:11;;;;;;;9.45;6.28;;;;;;;9.41;75.77;101235.81;1650911;84;21615;-78
2022/10/05 04:36:13;;;;;;;7.83;5.80;;;;;;;9.37;75.82;101237.53;1663530;83;21092;-77
2022/10/05 04:39:22;;;;;;;12.70;6.25;;;;;;;9.34;75.80;101242.73;1666058;83;21125;-77
2022/10/05 04:42:17;;;;;;;10.05;6.33;;;;;;;9.32;75.87;101250.05;1659597;84;21135;-77
2022/10/05 04:45:11;;;;;;;10.72;6.03;;;;;;;9.27;75.89;101243.59;1663015;86;21155;-76
2022/10/05 04:48:25;;;;;;;9.55;6.03;;;;;;;9.25;75.94;101237.58;1656801;84;21028;-76
2022/10/05 04:51:37;;;;;;;10.70;6.25;;;;;;;9.25;75.97;101241.02;1658065;86;21020;-76
2022/10/05 04:55:05;;;;;;;9.55;5.87;;;;;;;9.26;75.97;101231.55;1663021;84;21115;-75
2022/10/05 04:58:11;;;;;;;7.90;6.47;;;;;;;9.25;75.97;101237.15;1649771;85;21733;-77
2022/10/05 05:01:28;;;;;;;8.83;5.70;;;;;;;9.25;76.01;101239.73;1637636;85;21598;-76
2022/10/05 05:04:46;;;;;;;11.45;6.80;;;;;;;9.28;76.06;101236.28;1647795;86;21063;-76
2022/10/05 05:08:12;;;;;;;7.70;6.22;;;;;;;9.29;76.08;101237.58;1650393;86;21122;-76
2022/10/05 05:11:14;;;;;;;11.43;6.85;;;;;;;9.32;76.10;101240.59;1614319;86;21100;-76
2022/10/05 05:14:12;;;;;;;9.53;6.30;;;;;;;9.35;76.12;101238.00;1610308;87;21068;-76
2022/10/05 05:17:32;;;;;;;9.68;5.80;;;;;;;9.37;76.15;101231.09;1596219;88;21108;-76
2022/10/05 05:20:37;;;;;;;10.65;6.53;;;;;;;9.41;76.21;101238.39;1620369;86;21117;-77
2022/10/05 05:23:43;;;;;;;10.33;6.20;;;;;;;9.45;76.22;101234.52;1586216;88;22314;-76
2022/10/05 05:27:03;;;;;;;9.38;5.53;;;;;;;9.48;76.23;101233.66;1619693;86;21878;-77
2022/10/05 05:30:08;;;;;;;8.05;5.80;;;;;;;9.50;76.26;101241.83;1590613;88;21131;-76
2022/10/05 05:33:26;;;;;;;12.33;6.10;;;;;;;9.54;76.28;101250.42;1628676;87;21531;-76
2022/10/05 05:36:19;;;;;;;8.10;6.17;;;;;;;9.56;76.30;101253.44;1594440;88;21199;-77
2022/10/05 05:39:19;;;;;;;;;;;;;;;9.61;76.36;101250.41;1598473;88;21152;-76
2022/10/05 05:42:37;;;;;;;9.15;5.92;;;;;;;9.68;76.57;101254.28;1612574;88;20203;-76
2022/10/05 05:45:56;;;;;;;6.25;5.55;;;;;;;9.76;76.43;101241.78;1615625;87;21151;-76
2022/10/05 05:48:46;;;;;;;7.47;5.33;;;;;;;9.85;76.44;101243.48;1610264;87;21079;-76
2022/10/05 05:51:38;;;;;;;11.45;6.17;;;;;;;9.93;76.50;101245.14;1619698;87;21552;-76
2022/10/05 05:54:30;;;;;;;9.30;5.83;;;;;;;10.03;76.50;101241.23;1644499;87;21103;-76
2022/10/05 05:57:33;;;;;;;18.23;5.80;;;;;;;10.11;76.50;101238.19;1646174;85;21032;-76
2022/10/05 06:00:23;;;;;;;6.53;5.58;;;;;;;10.34;76.67;101234.25;1620314;86;21164;-76
2022/10/05 06:03:22;;;;;;;7.53;5.58;;;;;;;10.71;76.72;101230.55;1620962;88;20965;-76
2022/10/05 06:06:10;;;;;;;6.22;5.33;;;;;;;11.03;76.68;101222.52;1594890;88;21541;-76
2022/10/05 06:09:01;;;;;;;7.17;4.87;;;;;;;11.23;76.53;101223.66;1624921;86;21028;-76
2022/10/05 06:11:57;;;;;;;8.08;4.92;;;;;;;11.26;76.47;101221.89;1593598;88;21103;-76
2022/10/05 06:14:50;;;;;;;8.13;4.92;;;;;;;11.25;76.44;101216.73;1622604;87;21743;-76
2022/10/05 06:17:39;;;;;;;5.40;4.35;;;;;;;11.25;76.20;101218.03;1620544;87;21120;-76
2022/10/05 06:20:44;;;;;;;6.70;4.92;;;;;;;11.24;76.47;101217.60;1616714;88;21112;-76
2022/10/05 06:23:49;;;;;;;10.82;5.50;;;;;;;11.24;76.53;101215.02;1616614;88;21092;-76
2022/10/05 06:27:12;;;;;;;5.75;4.83;;;;;;;11.24;76.58;101220.19;1614858;88;21079;-76
2022/10/05 06:30:12;;;;;;;6.40;4.67;;;;;;;11.28;76.60;101214.97;1645646;87;21645;-76
2022/10/05 06:33:21;;;;;;;5.10;4.42;;;;;;;11.28;76.54;101216.27;1643722;87;20983;-76
2022/10/05 06:36:28;;;;;;;7.80;4.60;;;;;;;11.34;76.62;101213.20;1645876;85;21006;-76
2022/10/05 06:39:37;;;;;;;7.40;4.83;;;;;;;11.40;76.64;101214.00;1619890;86;21028;-76
2022/10/05 06:42:33;;;;;;;6.12;4.60;;;;;;;11.48;76.63;101218.64;1619518;87;21056;-77
2022/10/05 06:45:43;;;;;;;8.25;5.65;;;;;;;11.59;76.64;101214.20;1619756;87;21120;-77
2022/10/05 06:48:48;;;;;;;9.78;5.80;;;;;;;11.73;76.68;101211.91;1593334;89;21132;-76
2022/10/05 06:51:53;;;;;;;5.87;5.12;;;;;;;11.93;76.70;101206.95;1620189;87;21072;-76
2022/10/05 06:54:53;;;;;;;8.03;5.85;;;;;;;12.10;76.63;101208.01;1592823;88;21124;-77
2022/10/05 06:58:16;;;;;;;7.72;5.58;;;;;;;12.32;76.65;101207.29;1620145;87;21140;-76
2022/10/05 07:01:40;;;;;;;10.50;5.70;;;;;;;12.53;76.67;101199.62;1521832;85;5001240;-77
2022/10/05 07:05:04;;;;;;;6.93;5.40;;;;;;;12.66;76.53;101206.34;1651992;84;21152;-76
2022/10/05 07:08:12;;;;;;;8.48;5.15;;;;;;;12.73;76.49;101209.27;1652873;85;21136;-76
2022/10/05 07:11:18;;;;;;;8.25;5.72;;;;;;;12.75;76.36;101232.59;1653409;85;21576;-76
2022/10/05 07:14:17;;;;;;;7.80;5.47;;;;;;;12.73;76.45;101237.81;1656010;85;21049;-76
2022/10/05 07:17:25;;;;;;;7.30;5.80;;;;;;;12.75;76.48;101223.07;1652774;85;21072;-76
2022/10/05 07:20:15;;;;;;;7.45;6.10;;;;;;;12.78;76.48;101220.43;1650653;85;21569;-76
2022/10/05 07:23:30;;;;;;;11.65;6.10;;;;;;;12.78;76.39;101243.79;1655190;85;21102;-76
2022/10/05 07:26:35;;;;;;;10.18;5.17;;;;;;;12.80;76.47;101247.66;1655086;85;21665;-76
2022/10/05 07:29:43;;;;;;;6.20;4.70;;;;;;;12.85;76.44;101253.64;1650795;85;21368;-77
2022/10/05 07:32:46;;;;;;;8.58;3.77;;;;;;;12.87;76.41;101247.55;1652489;85;21518;-77
2022/10/05 07:39:28;;;;;;;7.45;3.67;;;;;;;12.96;76.32;101241.35;1654518;85;21623;-76
2022/10/05 07:42:40;;;;;;;4.67;3.47;;;;;;;13.11;76.35;101239.78;1653090;85;21104;-77
2022/10/05 07:45:52;;;;;;;4.05;3.35;;;;;;;13.36;76.35;101243.30;1654119;85;21101;-76
2022/10/05 07:49:12;;;;;;;5.60;3.70;;;;;;;13.67;76.33;101239.68;1653871;85;21623;-76
2022/10/05 07:52:18;;;;;;;7.40;3.77;;;;;;;14.05;76.30;101237.17;1651346;85;21112;-76
2022/10/05 07:55:24;;;;;;;4.37;3.20;;;;;;;14.44;76.16;101234.20;1655650;85;21084;-76
2022/10/05 07:58:33;;;;;;;8.23;3.55;;;;;;;14.67;76.07;101227.16;1650325;85;21124;-76
2022/10/05 08:01:25;;;;;;;5.62;3.62;;;;;;;14.74;75.92;101226.57;1647748;85;21095;-76
2022/10/05 08:04:24;;;;;;;6.37;3.50;;;;;;;14.81;75.92;101219.88;1653294;85;21048;-76
2022/10/05 08:07:14;;;;;;;4.75;3.25;;;;;;;14.84;75.85;101228.92;1648636;85;21099;-76
2022/10/05 08:10:16;;;;;;;4.42;3.05;;;;;;;14.89;75.81;101228.81;1652526;85;21092;-76
2022/10/05 08:13:13;;;;;;;6.10;3.08;;;;;;;15.01;75.80;101232.88;1652843;85;21071;-77
2022/10/05 08:16:03;;;;;;;6.55;2.72;;;;;;;15.28;75.77;101236.52;1651993;85;21107;-76
2022/10/05 08:19:13;;;;;;;5.60;3.27;;;;;;;15.41;75.65;101237.91;1657688;85;21466;-76
2022/10/05 08:22:05;;;;;;;6.75;3.27;;;;;;;15.46;75.63;101247.77;1654662;85;21135;-76
2022/10/05 08:25:04;;;;;;;11.30;3.10;;;;;;;15.44;75.64;101249.56;1655081;84;21641;-76
2022/10/05 08:28:19;;;;;;;4.65;3.12;;;;;;;15.39;75.60;101241.01;1653107;85;21506;-74
2022/10/05 08:31:26;;;;;;;5.40;3.52;;;;;;;15.36;75.63;101243.69;1650431;85;21103;-74
2022/10/05 08:34:29;;;;;;;3.70;3.08;;;;;;;15.30;75.42;101237.33;1651161;85;21071;-74
2022/10/05 08:37:34;;;;;;;5.20;3.30;;;;;;;15.26;75.42;101227.88;1649260;85;21058;-74
2022/10/05 08:40:27;;;;;;;6.28;3.47;;;;;;;15.24;75.29;101225.31;1653334;85;21072;-74
2022/10/05 08:43:46;;;;;;;5.37;3.12;;;;;;;15.19;75.17;101228.03;1651956;85;21073;-74
2022/10/05 08:47:04;;;;;;;5.00;3.00;;;;;;;15.19;75.15;101225.88;1652190;85;21044;-74
2022/10/05 08:50:41;;;;;;;5.33;3.17;;;;;;;15.16;75.03;101226.81;1628689;85;21556;-74
2022/10/05 08:53:46;;;;;;;4.55;3.00;;;;;;;15.16;74.89;101214.23;1654161;85;21084;-75
2022/10/05 08:56:42;;;;;;;8.53;3.10;;;;;;;15.17;74.82;101213.34;1645845;85;21425;-75
2022/10/05 09:00:01;;;;;;;3.70;2.90;;;;;;;15.22;74.72;101205.81;1644660;85;21124;-75
2022/10/05 09:03:12;;;;;;;7.20;3.27;;;;;;;15.22;74.49;101201.91;1648492;85;21072;-75
2022/10/05 09:06:13;;;;;;;9.00;3.00;;;;;;;15.20;74.44;101193.72;1652488;85;21870;-76
2022/10/05 09:09:36;;;;;;;7.47;3.20;;;;;;;15.23;74.32;101204.92;1642254;85;21040;-76
2022/10/05 09:12:52;;;;;;;7.75;3.33;;;;;;;15.27;74.33;101207.00;1650769;85;22445;-76
2022/10/05 09:15:44;;;;;;;6.62;3.33;;;;;;;15.28;74.24;101196.98;1655304;83;21565;-76
2022/10/05 09:19:00;;;;;;;7.25;3.27;;;;;;;15.36;74.16;101203.30;1646274;85;21130;-76
2022/10/05 09:22:10;;;;;;;5.17;2.95;;;;;;;15.37;74.00;101196.74;1649061;85;20999;-76
2022/10/05 09:25:39;;;;;;;6.45;2.92;;;;;;;15.38;73.91;101202.81;1644801;85;21068;-76
2022/10/05 09:28:35;;;;;;;4.10;2.40;;;;;;;15.39;73.82;101203.22;1646968;85;21176;-76
2022/10/05 09:31:37;;;;;;;6.72;2.80;;;;;;;15.42;73.73;101197.93;1644224;85;21534;-76
2022/10/05 09:34:49;;;;;;;3.85;3.02;;;;;;;15.44;73.61;101189.17;1650118;85;21602;-76
2022/10/05 09:38:03;;;;;;;5.95;2.67;;;;;;;15.49;73.60;101177.32;1648350;85;21596;-76
2022/10/05 09:41:40;;;;;;;3.80;2.22;;;;;;;15.48;73.48;101190.80;1644885;85;21045;-76
2022/10/05 09:44:54;;;;;;;5.28;2.47;;;;;;;15.52;73.31;101179.84;1642022;85;21004;-76
2022/10/05 09:48:24;;;;;;;6.15;2.30;;;;;;;15.51;73.15;101186.81;1660052;85;21112;-76
2022/10/05 09:51:44;;;;;;;8.38;2.67;;;;;;;15.54;73.15;101184.12;1652262;85;21606;-76
2022/10/05 09:54:46;;;;;;;3.02;2.33;;;;;;;15.55;72.97;101191.49;1650841;85;21108;-76
2022/10/05 09:57:48;;;;;;;3.50;2.42;;;;;;;15.54;72.87;101189.78;1622360;85;21053;-76
2022/10/05 10:01:24;;;;;;;5.60;2.22;;;;;;;15.53;72.79;101185.47;1653944;85;21016;-75
2022/10/05 10:05:00;;;;;;;3.05;2.20;;;;;;;15.54;72.76;101198.45;1649795;85;21068;-74
2022/10/05 10:08:10;;;;;;;5.90;2.30;;;;;;;15.58;72.68;101175.80;1642859;85;22295;-76
2022/10/05 10:11:29;;;;;;;2.95;2.33;;;;;;;15.63;72.58;101176.50;1649323;85;21128;-77
2022/10/05 10:14:44;;;;;;;4.03;2.30;;;;;;;15.68;72.45;101172.02;1654028;85;21513;-77
2022/10/05 10:17:37;;;;;;;5.35;2.10;;;;;;;15.70;72.37;101165.00;1653512;85;21080;-76
2022/10/05 10:20:51;;;;;;;3.72;2.10;;;;;;;15.78;71.91;101161.73;1649935;85;21050;-76
2022/10/05 10:23:41;;;;;;;4.05;2.05;;;;;;;15.86;71.97;101157.59;1653032;85;21639;-76
2022/10/05 10:27:10;;;;;;;7.00;2.37;;;;;;;15.93;71.86;101160.88;1635082;85;22185;-76
2022/10/05 10:30:23;;;;;;;3.20;2.05;;;;;;;16.04;71.95;101167.49;1650460;85;21128;-76
2022/10/05 10:33:22;;;;;;;4.47;2.08;;;;;;;16.22;71.90;101170.83;1644811;85;21500;-76
2022/10/05 10:36:25;;;;;;;5.55;2.33;;;;;;;16.38;71.76;101156.86;1645174;85;21112;-76
2022/10/05 10:39:49;;;;;;;2.80;2.22;;;;;;;16.48;71.62;101151.75;1650028;85;22242;-76
2022/10/05 10:43:21;;;;;;;4.22;2.30;;;;;;;16.59;71.42;101155.33;1650791;85;21358;-76
2022/10/05 10:46:36;;;;;;;3.12;2.15;;;;;;;16.64;71.35;101141.67;1642615;85;21591;-76
2022/10/05 10:49:49;;;;;;;3.33;2.10;;;;;;;16.76;71.35;101134.74;1643630;85;21100;-76
2022/10/05 10:52:45;;;;;;;4.10;2.77;;;;;;;16.87;71.31;101136.55;1654599;85;20989;-76
2022/10/05 10:56:16;;;;;;;5.17;1.70;;;;;;;16.99;71.15;101136.59;1647233;85;21064;-76
2022/10/05 10:59:32;;;;;;;2.80;1.72;;;;;;;17.08;71.07;101137.58;1644801;85;21087;-77
2022/10/05 11:02:45;;;;;;;8.40;1.87;;;;;;;17.20;70.97;101149.34;1647959;85;21076;-77
2022/10/05 11:05:38;;;;;;;4.53;2.10;;;;;;;17.27;70.76;101148.67;1655429;85;21556;-76
2022/10/05 11:08:36;;;;;;;3.83;2.47;;;;;;;17.30;70.67;101139.41;1653493;85;21088;-76
2022/10/05 11:11:53;;;;;;;2.67;1.60;;;;;;;17.27;70.49;101144.75;1642801;85;21012;-76
2022/10/05 11:15:16;;;;;;;5.17;1.72;;;;;;;17.27;70.45;101153.90;1649540;85;21113;-76
2022/10/05 11:18:29;;;;;;;2.47;2.17;;;;;;;17.31;70.38;101155.50;1651674;85;21418;-76
2022/10/05 11:21:35;;;;;;;4.72;1.67;;;;;;;17.33;70.21;101157.60;1650650;85;21407;-76
2022/10/05 11:25:00;;;;;;;3.50;1.98;;;;;;;17.29;69.80;101151.63;1652601;85;21121;-76
2022/10/05 11:28:28;;;;;;;4.83;2.37;;;;;;;17.27;69.97;101159.13;1652622;85;21052;-76
2022/10/05 11:31:56;;;;;;;2.55;1.52;;;;;;;17.28;69.87;101160.38;1652016;85;21068;-77
2022/10/05 11:35:23;;;;;;;7.20;2.00;;;;;;;17.29;69.71;101149.47;1655892;84;21549;-77
2022/10/05 11:38:49;;;;;;;4.05;2.50;;;;;;;17.31;69.65;101143.73;1641878;85;21672;-76
2022/10/05 11:42:05;;;;;;;4.10;1.90;;;;;;;17.32;69.50;101144.98;1652650;85;21063;-76
2022/10/05 11:45:14;;;;;;;6.75;2.02;;;;;;;17.33;69.43;101143.23;1655539;85;21657;-76
2022/10/05 11:48:02;;;;;;;4.08;1.90;;;;;;;17.34;69.34;101130.55;1655363;85;21099;-76
2022/10/05 11:51:18;;;;;;;5.83;2.20;;;;;;;17.33;69.23;101130.16;1654559;85;21115;-76
2022/10/05 11:54:16;;;;;;;2.58;1.90;;;;;;;17.37;69.21;101122.15;1659049;84;21220;-75
2022/10/05 11:57:22;;;;;;;3.60;2.12;;;;;;;17.40;69.06;101125.96;1654073;84;21605;-75
2022/10/05 12:00:21;;;;;;;3.75;2.10;;;;;;;17.38;68.97;101122.55;1662234;84;20925;-75
2022/10/05 12:03:26;;;;;;;3.67;2.05;;;;;;;17.38;68.92;101115.16;1664225;84;20976;-75
2022/10/05 12:06:28;;;;;;;4.22;2.20;;;;;;;17.44;68.85;101109.71;1652009;84;21151;-75
2022/10/05 12:09:37;;;;;;;3.08;1.82;;;;;;;17.50;68.74;101109.48;1656552;84;21091;-76
2022/10/05 12:12:26;;;;;;;2.80;2.20;;;;;;;17.51;68.63;101096.81;1647155;84;21065;-76
2022/10/05 12:15:23;;;;;;;3.02;2.02;;;;;;;17.53;68.49;101097.16;1662220;84;21104;-76
2022/10/05 12:18:28;;;;;;;4.80;2.12;;;;;;;17.54;68.42;101101.93;1653209;84;21597;-76
2022/10/05 12:21:36;;;;;;;4.15;2.05;;;;;;;17.58;68.35;101100.05;1627047;86;21059;-76
2022/10/05 12:24:32;;;;;;;5.40;2.08;;;;;;;17.62;68.30;101091.19;1596717;87;21091;-76
2022/10/05 12:27:22;;;;;;;5.33;2.22;;;;;;;17.68;68.23;101093.58;1633046;86;20992;-76
2022/10/05 12:30:20;;;;;;;2.70;2.22;;;;;;;17.73;68.15;101094.25;1612433;87;21083;-76
2022/10/05 12:33:23;;;;;;;5.78;2.02;;;;;;;17.74;68.06;101099.88;1633748;84;21124;-76
2022/10/05 12:36:24;;;;;;;3.67;2.20;;;;;;;17.76;68.02;101100.67;1619365;87;21091;-76
2022/10/05 12:39:24;;;;;;;4.92;2.10;;;;;;;17.75;67.85;101095.05;1617237;87;21099;-76
2022/10/05 12:42:36;;;;;;;4.40;2.10;;;;;;;17.74;67.84;101098.12;1617608;86;21964;-76
2022/10/05 12:45:32;;;;;;;4.55;2.15;;;;;;;17.74;67.69;101096.81;1572806;90;21088;-76
2022/10/05 12:48:55;;;;;;;5.03;2.10;;;;;;;17.73;67.63;101091.19;1560160;90;21128;-76
2022/10/05 12:51:45;;;;;;;3.95;2.15;;;;;;;17.71;67.55;101085.16;1504280;93;21146;-76
2022/10/05 12:54:50;;;;;;;6.15;2.60;;;;;;;17.69;67.47;101082.20;1508600;94;21201;-76
2022/10/05 12:57:55;;;;;;;6.80;2.40;;;;;;;17.65;67.41;101080.19;1508182;93;21281;-75
2022/10/05 13:00:51;;;;;;;3.98;2.08;;;;;;;17.65;67.36;101075.38;1508658;93;21237;-75
2022/10/05 13:03:41;;;;;;;3.67;2.12;;;;;;;17.65;67.33;101068.42;1499912;93;21677;-75
2022/10/05 13:06:31;;;;;;;5.30;1.87;;;;;;;17.65;67.26;101071.03;1493050;94;21221;-75
2022/10/05 13:09:36;;;;;;;4.47;2.45;;;;;;;17.64;67.14;101074.53;1513941;93;21150;-76
2022/10/05 13:12:41;;;;;;;2.92;2.02;;;;;;;17.63;67.08;101071.97;1507892;92;21155;-76
2022/10/05 13:15:46;;;;;;;5.47;2.12;;;;;;;17.62;67.02;101064.58;1500171;93;21765;-76
2022/10/05 13:19:10;;;;;;;3.02;2.17;;;;;;;17.63;66.95;101057.59;1508981;93;21127;-76
2022/10/05 13:22:34;;;;;;;4.72;1.95;;;;;;;17.60;66.93;101057.70;1542561;88;21631;-76
2022/10/05 13:25:35;;;;;;;3.67;2.25;;;;;;;17.54;66.85;101049.18;1607952;87;21433;-76
2022/10/05 13:28:56;;;;;;;4.75;2.40;;;;;;;17.49;66.77;101047.19;1631955;86;21045;-76
2022/10/05 13:31:50;;;;;;;5.58;2.70;;;;;;;17.47;66.74;101049.47;1657827;85;21547;-76
2022/10/05 13:34:40;;;;;;;7.05;2.17;;;;;;;17.46;66.72;101053.84;1653755;84;21107;-76
2022/10/05 13:37:46;;;;;;;3.60;1.92;;;;;;;17.46;66.66;101051.23;1633229;85;21572;-76
2022/10/05 13:40:48;;;;;;;5.13;2.10;;;;;;;17.48;66.63;101059.87;1616972;86;21139;-76
2022/10/05 13:43:38;;;;;;;3.65;2.12;;;;;;;17.50;66.57;101049.34;1610595;86;21570;-76
2022/10/05 13:46:41;;;;;;;3.17;1.75;;;;;;;17.49;66.51;101045.88;1612994;86;21146;-76
2022/10/05 13:49:44;;;;;;;4.45;2.40;;;;;;;17.46;66.47;101041.22;1616801;86;21127;-76
2022/10/05 13:52:49;;;;;;;2.67;1.90;;;;;;;17.43;66.42;101038.72;1612161;87;21634;-76
2022/10/05 13:55:52;;;;;;;6.22;1.90;;;;;;;17.37;66.37;101035.88;1621452;86;21704;-76
2022/10/05 13:58:51;;;;;;;7.08;2.30;;;;;;;17.32;66.37;101048.72;1647404;84;21086;-75
2022/10/05 14:02:07;;;;;;;4.70;1.92;;;;;;;17.27;66.33;101048.89;1645959;85;21017;-75
2022/10/05 14:05:01;;;;;;;2.45;1.87;;;;;;;17.23;66.34;101046.45;1646804;85;21799;-75
2022/10/05 14:07:59;;;;;;;3.60;2.22;;;;;;;17.18;66.31;101045.30;1650636;85;21017;-75
2022/10/05 14:10:46;;;;;;;3.15;1.95;;;;;;;17.14;66.30;101042.44;1652605;85;21082;-75
2022/10/05 14:13:45;;;;;;;4.95;2.52;;;;;;;17.11;66.29;101043.85;1650068;85;21099;-75
2022/10/05 14:16:32;;;;;;;3.45;2.30;;;;;;;17.09;66.28;101043.91;1652339;85;21080;-75
2022/10/05 14:19:26;;;;;;;2.90;1.82;;;;;;;17.07;66.21;101039.19;1648803;85;21191;-76
2022/10/05 14:22:22;;;;;;;2.65;2.10;;;;;;;17.07;66.23;101033.11;1650735;84;21156;-76
2022/10/05 14:25:12;;;;;;;4.67;2.25;;;;;;;17.05;66.20;101030.55;1648987;85;21162;-76